createdAt,value
2019-02-09T00:01:22.309Z,3.90
2019-02-09T00:03:26.593Z,3.90
2019-02-09T00:05:30.520Z,3.89
2019-02-09T00:07:34.525Z,3.90
2019-02-09T00:09:41.414Z,3.87
2019-02-09T00:11:45.275Z,3.87
2019-02-09T00:13:49.365Z,3.85
2019-02-09T00:15:53.468Z,3.84
2019-02-09T00:17:57.422Z,3.83
2019-02-09T00:20:01.461Z,3.82
2019-02-09T00:22:05.970Z,3.80
2019-02-09T00:24:09.886Z,3.79
2019-02-09T00:26:13.798Z,3.77
2019-02-09T00:28:17.737Z,3.76
2019-02-09T00:30:21.816Z,3.74
2019-02-09T00:32:25.818Z,3.71
2019-02-09T00:34:30.069Z,3.69
2019-02-09T00:36:34.104Z,3.67
2019-02-09T00:38:39.058Z,3.66
2019-02-09T00:40:43.153Z,3.65
2019-02-09T00:42:47.304Z,3.63
2019-02-09T00:44:51.399Z,3.61
2019-02-09T00:46:55.282Z,3.61
2019-02-09T00:48:59.258Z,3.60
2019-02-09T00:51:03.201Z,3.60
2019-02-09T00:53:07.266Z,3.57
2019-02-09T00:55:11.437Z,3.58
2019-02-09T00:57:15.383Z,3.54
2019-02-09T00:59:19.469Z,3.55
2019-02-09T01:01:23.396Z,3.52
2019-02-09T01:03:27.337Z,3.51
2019-02-09T01:05:33.623Z,3.50
2019-02-09T01:07:37.705Z,3.49
2019-02-09T01:09:41.849Z,3.46
2019-02-09T01:11:47.443Z,3.44
2019-02-09T01:13:51.629Z,3.42
2019-02-09T01:15:55.672Z,3.41
2019-02-09T01:17:59.718Z,3.39
2019-02-09T01:20:03.864Z,3.37
2019-02-09T01:22:07.899Z,3.36
2019-02-09T01:24:11.800Z,3.35
2019-02-09T01:26:15.838Z,3.32
2019-02-09T01:28:19.962Z,3.32
2019-02-09T01:30:25.057Z,3.31
2019-02-09T01:32:29.036Z,3.31
2019-02-09T01:34:32.961Z,3.31
2019-02-09T01:36:36.979Z,3.30
2019-02-09T01:38:40.807Z,3.31
2019-02-09T01:40:47.684Z,3.31
2019-02-09T01:42:51.674Z,3.32
2019-02-09T01:44:56.332Z,3.34
2019-02-09T01:47:00.271Z,3.34
2019-02-09T01:49:04.157Z,3.35
2019-02-09T01:51:08.161Z,3.35
2019-02-09T01:53:12.269Z,3.36
2019-02-09T01:55:16.322Z,3.36
2019-02-09T01:57:20.285Z,3.37
2019-02-09T01:59:24.077Z,3.38
2019-02-09T02:01:27.998Z,3.39
2019-02-09T02:03:31.949Z,3.39
2019-02-09T02:05:35.867Z,3.40
2019-02-09T02:07:39.804Z,3.40
2019-02-09T02:09:43.825Z,3.40
2019-02-09T02:11:47.705Z,3.38
2019-02-09T02:13:51.632Z,3.35
2019-02-09T02:15:55.886Z,3.32
2019-02-09T02:17:59.809Z,3.29
2019-02-09T02:20:03.879Z,3.28
2019-02-09T02:22:07.873Z,3.26
2019-02-09T02:24:11.627Z,3.25
2019-02-09T02:26:15.680Z,3.25
2019-02-09T02:28:19.607Z,3.26
2019-02-09T02:30:25.643Z,3.29
2019-02-09T02:32:29.540Z,3.31
2019-02-09T02:34:33.352Z,3.35
2019-02-09T02:36:37.397Z,3.37
2019-02-09T02:38:41.257Z,3.40
2019-02-09T02:40:45.243Z,3.45
2019-02-09T02:42:49.190Z,3.48
2019-02-09T02:44:53.038Z,3.51
2019-02-09T02:46:56.966Z,3.53
2019-02-09T02:49:00.867Z,3.55
2019-02-09T02:51:05.185Z,3.56
2019-02-09T02:53:09.071Z,3.58
2019-02-09T02:55:15.197Z,3.59
2019-02-09T02:57:19.219Z,3.60
2019-02-09T02:59:23.200Z,3.61
2019-02-09T03:03:44.401Z,3.64
2019-02-09T03:05:49.112Z,3.67
2019-02-09T03:07:53.004Z,3.71
2019-02-09T03:09:56.919Z,3.74
2019-02-09T03:12:02.212Z,3.78
2019-02-09T03:14:06.427Z,3.81
2019-02-09T03:16:10.527Z,3.83
2019-02-09T03:18:14.408Z,3.87
2019-02-09T03:20:18.969Z,3.90
2019-02-09T03:22:24.967Z,3.93
2019-02-09T03:24:28.863Z,3.96
2019-02-09T03:26:33.015Z,3.99
2019-02-09T03:28:36.939Z,4.01
2019-02-09T03:30:47.873Z,4.04
2019-02-09T03:32:46.895Z,4.09
2019-02-09T03:34:50.864Z,4.09
2019-02-09T03:36:55.489Z,4.13
2019-02-09T03:38:59.521Z,4.14
2019-02-09T03:41:03.371Z,4.16
2019-02-09T03:43:08.274Z,4.15
2019-02-09T03:45:18.661Z,4.16
2019-02-09T03:47:23.455Z,4.18
2019-02-09T03:49:27.607Z,4.19
2019-02-09T03:51:32.523Z,4.24
2019-02-09T03:53:39.840Z,4.24
2019-02-09T03:55:44.213Z,4.26
2019-02-09T03:57:49.279Z,4.26
2019-02-09T03:59:53.412Z,4.25
2019-02-09T04:01:58.142Z,4.29
2019-02-09T04:04:03.037Z,4.28
2019-02-09T04:06:06.888Z,4.27
2019-02-09T04:08:12.685Z,4.24
2019-02-09T04:10:18.147Z,4.23
2019-02-09T04:12:23.117Z,4.23
2019-02-09T04:14:27.118Z,4.21
2019-02-09T04:16:30.979Z,4.21
2019-02-09T04:18:35.722Z,4.22
2019-02-09T04:20:39.797Z,4.21
2019-02-09T04:22:44.237Z,4.21
2019-02-09T04:24:48.120Z,4.20
2019-02-09T04:26:52.253Z,4.20
2019-02-09T04:28:56.144Z,4.19
2019-02-09T04:31:05.947Z,4.20
2019-02-09T04:33:05.956Z,4.20
2019-02-09T04:35:13.716Z,4.19
2019-02-09T04:37:18.749Z,4.18
2019-02-09T04:39:25.634Z,4.17
2019-02-09T04:41:29.644Z,4.15
2019-02-09T04:43:34.138Z,4.15
2019-02-09T04:45:38.007Z,4.14
2019-02-09T04:47:42.375Z,4.14
2019-02-09T04:49:46.231Z,4.11
2019-02-09T04:51:51.970Z,4.12
2019-02-09T04:53:58.227Z,4.12
2019-02-09T04:56:02.080Z,4.13
2019-02-09T04:58:06.726Z,4.15
2019-02-09T05:00:12.328Z,4.18
2019-02-09T05:02:17.529Z,4.22
2019-02-09T05:04:22.464Z,4.24
2019-02-09T05:06:26.764Z,4.28
2019-02-09T05:08:32.252Z,4.31
2019-02-09T05:10:36.274Z,4.28
2019-02-09T05:12:40.420Z,4.23
2019-02-09T05:14:44.398Z,4.19
2019-02-09T05:16:53.124Z,4.15
2019-02-09T05:18:58.981Z,4.11
2019-02-09T05:21:02.906Z,4.10
2019-02-09T05:23:08.404Z,4.10
2019-02-09T05:25:12.684Z,4.10
2019-02-09T05:27:16.683Z,4.10
2019-02-09T05:29:24.060Z,4.11
2019-02-09T05:31:28.040Z,4.10
2019-02-09T05:33:33.281Z,4.11
2019-02-09T05:35:37.100Z,4.11
2019-02-09T05:37:41.187Z,4.12
2019-02-09T05:39:45.173Z,4.14
2019-02-09T05:41:48.919Z,4.15
2019-02-09T05:43:55.960Z,4.18
2019-02-09T05:45:59.799Z,4.23
2019-02-09T05:48:04.077Z,4.28
2019-02-09T05:50:09.235Z,4.32
2019-02-09T05:52:13.085Z,4.34
2019-02-09T05:54:19.023Z,4.37
2019-02-09T05:56:24.227Z,4.39
2019-02-09T05:58:28.238Z,4.41
2019-02-09T06:00:41.130Z,4.41
2019-02-09T06:02:44.907Z,4.42
2019-02-09T06:04:49.517Z,4.42
2019-02-09T06:06:53.473Z,4.44
2019-02-09T06:09:01.160Z,4.45
2019-02-09T06:11:05.077Z,4.45
2019-02-09T06:13:09.066Z,4.47
2019-02-09T06:15:13.921Z,4.45
2019-02-09T06:17:18.484Z,4.46
2019-02-09T06:19:22.539Z,4.44
2019-02-09T06:21:26.443Z,4.43
2019-02-09T06:23:30.639Z,4.40
2019-02-09T06:25:34.561Z,4.40
2019-02-09T06:27:39.114Z,4.39
2019-02-09T06:29:43.459Z,4.37
2019-02-09T06:31:47.863Z,4.40
2019-02-09T06:33:51.861Z,4.39
2019-02-09T06:35:55.703Z,4.42
2019-02-09T06:37:59.612Z,4.47
2019-02-09T06:40:03.978Z,4.49
2019-02-09T06:42:08.420Z,4.55
2019-02-09T06:44:12.909Z,4.61
2019-02-09T06:46:16.858Z,4.68
2019-02-09T06:48:22.904Z,4.76
2019-02-09T06:50:29.124Z,4.84
2019-02-09T06:52:33.049Z,4.90
2019-02-09T06:54:38.134Z,4.94
2019-02-09T06:56:41.865Z,4.98
2019-02-09T06:58:46.766Z,5.03
2019-02-09T07:00:50.819Z,5.09
2019-02-09T07:02:57.358Z,5.16
2019-02-09T07:05:01.851Z,5.23
2019-02-09T07:07:06.489Z,5.29
2019-02-09T07:09:10.733Z,5.35
2019-02-09T07:11:14.619Z,5.42
2019-02-09T07:13:18.527Z,5.49
2019-02-09T07:15:25.096Z,5.54
2019-02-09T07:17:29.143Z,5.60
2019-02-09T07:19:33.194Z,5.63
2019-02-09T07:21:37.176Z,5.69
2019-02-09T07:23:41.226Z,5.73
2019-02-09T07:25:45.305Z,5.79
2019-02-09T07:27:49.343Z,5.84
2019-02-09T07:29:54.480Z,5.88
2019-02-09T07:31:58.759Z,5.93
2019-02-09T07:34:03.592Z,5.98
2019-02-09T07:36:07.742Z,6.03
2019-02-09T07:38:11.630Z,6.10
2019-02-09T07:40:19.589Z,6.22
2019-02-09T07:42:23.698Z,6.45
2019-02-09T07:44:28.683Z,6.73
2019-02-09T07:46:32.684Z,7.01
2019-02-09T07:48:36.576Z,7.52
2019-02-09T07:50:42.521Z,8.06
2019-02-09T07:52:46.861Z,8.42
2019-02-09T07:55:20.459Z,8.52
2019-02-09T07:57:24.440Z,8.70
2019-02-09T07:59:36.454Z,8.88
2019-02-09T08:01:42.033Z,8.91
2019-02-09T08:03:46.086Z,9.00
2019-02-09T08:05:50.159Z,9.23
2019-02-09T08:07:54.206Z,9.35
2019-02-09T08:09:59.021Z,9.52
2019-02-09T08:12:03.425Z,9.70
2019-02-09T08:14:09.833Z,9.93
2019-02-09T08:16:15.257Z,9.95
2019-02-09T08:18:19.463Z,9.83
2019-02-09T08:20:26.163Z,9.63
2019-02-09T08:22:32.365Z,9.48
2019-02-09T08:24:37.428Z,9.66
2019-02-09T08:26:41.754Z,9.90
2019-02-09T08:28:46.257Z,10.06
2019-02-09T08:30:55.231Z,10.13
2019-02-09T08:32:59.813Z,10.16
2019-02-09T08:35:04.511Z,10.32
2019-02-09T08:37:09.025Z,10.99
2019-02-09T08:39:14.042Z,11.79
2019-02-09T08:41:18.741Z,12.25
2019-02-09T08:43:23.291Z,12.84
2019-02-09T08:45:27.928Z,13.32
2019-02-09T08:47:32.215Z,13.72
2019-02-09T08:49:37.049Z,14.04
2019-02-09T08:51:41.341Z,14.00
2019-02-09T08:53:47.113Z,14.14
2019-02-09T08:55:52.803Z,13.45
2019-02-09T08:57:57.402Z,12.71
2019-02-09T09:00:02.335Z,12.09
2019-02-09T09:02:06.942Z,11.48
2019-02-09T09:04:11.186Z,11.01
2019-02-09T09:06:18.419Z,10.53
2019-02-09T09:08:23.310Z,10.16
2019-02-09T09:10:28.833Z,9.84
2019-02-09T09:12:32.891Z,9.55
2019-02-09T09:14:39.319Z,9.37
2019-02-09T09:16:43.590Z,9.21
2019-02-09T09:18:48.925Z,9.13
2019-02-09T09:20:55.506Z,9.48
2019-02-09T09:22:59.642Z,9.96
2019-02-09T09:25:12.125Z,10.35
2019-02-09T09:27:16.274Z,10.48
2019-02-09T09:29:22.793Z,10.36
2019-02-09T09:31:29.034Z,10.11
2019-02-09T09:33:33.198Z,9.96
2019-02-09T09:35:37.359Z,9.84
2019-02-09T09:37:41.729Z,9.72
2019-02-09T09:39:46.444Z,9.55
2019-02-09T09:41:50.637Z,9.45
2019-02-09T09:43:54.675Z,9.37
2019-02-09T09:46:00.235Z,9.30
2019-02-09T09:48:04.657Z,9.28
2019-02-09T09:50:09.895Z,9.41
2019-02-09T09:52:14.006Z,9.50
2019-02-09T09:54:18.113Z,9.59
2019-02-09T09:56:22.983Z,9.79
2019-02-09T09:58:27.226Z,10.12
2019-02-09T10:00:31.960Z,10.34
2019-02-09T10:02:36.717Z,10.48
2019-02-09T10:04:41.588Z,10.55
2019-02-09T10:06:49.259Z,10.50
2019-02-09T10:08:53.914Z,10.39
2019-02-09T10:11:00.110Z,10.24
2019-02-09T10:13:06.309Z,10.10
2019-02-09T10:15:14.758Z,10.03
2019-02-09T10:17:18.674Z,9.95
2019-02-09T10:19:22.624Z,9.85
2019-02-09T10:21:27.474Z,9.77
2019-02-09T10:23:31.559Z,9.76
2019-02-09T10:25:36.480Z,9.76
2019-02-09T10:27:40.307Z,9.81
2019-02-09T10:29:44.699Z,9.82
2019-02-09T10:31:48.768Z,9.81
2019-02-09T10:33:58.491Z,9.79
2019-02-09T10:36:03.147Z,9.74
2019-02-09T10:38:09.302Z,9.72
2019-02-09T10:40:17.014Z,9.71
2019-02-09T10:42:25.720Z,9.75
2019-02-09T10:44:30.984Z,9.78
2019-02-09T10:46:36.634Z,9.79
2019-02-09T10:48:43.344Z,10.10
2019-02-09T10:50:48.675Z,10.53
2019-02-09T10:52:53.811Z,11.07
2019-02-09T10:54:57.884Z,11.60
2019-02-09T10:57:01.892Z,12.20
2019-02-09T10:59:05.915Z,12.52
2019-02-09T11:01:16.488Z,13.11
2019-02-09T11:03:22.350Z,13.65
2019-02-09T11:05:27.845Z,14.33
2019-02-09T11:07:32.281Z,14.84
2019-02-09T11:09:40.480Z,15.15
2019-02-09T11:11:45.277Z,15.37
2019-02-09T11:13:49.416Z,15.68
2019-02-09T11:15:53.858Z,15.53
2019-02-09T11:17:57.863Z,14.87
2019-02-09T11:20:03.720Z,14.37
2019-02-09T11:22:07.963Z,14.36
2019-02-09T11:24:12.118Z,14.16
2019-02-09T11:26:17.103Z,14.31
2019-02-09T11:28:22.673Z,14.45
2019-02-09T11:30:26.805Z,14.70
2019-02-09T11:32:31.403Z,14.63
2019-02-09T11:34:35.538Z,14.27
2019-02-09T11:36:40.068Z,14.27
2019-02-09T11:38:45.066Z,13.92
2019-02-09T11:40:50.842Z,13.19
2019-02-09T11:42:55.373Z,12.55
2019-02-09T11:44:59.511Z,12.16
2019-02-09T11:47:06.747Z,11.81
2019-02-09T11:49:11.937Z,11.55
2019-02-09T11:51:16.322Z,11.35
2019-02-09T11:53:20.566Z,11.14
2019-02-09T11:55:24.621Z,11.12
2019-02-09T11:57:29.110Z,11.37
2019-02-09T11:59:33.298Z,11.56
2019-02-09T12:01:37.506Z,11.82
2019-02-09T12:03:41.582Z,12.07
2019-02-09T12:05:48.454Z,12.18
2019-02-09T12:07:54.310Z,12.29
2019-02-09T12:09:58.434Z,12.52
2019-02-09T12:12:03.084Z,12.42
2019-02-09T12:14:07.036Z,12.10
2019-02-09T12:16:11.214Z,11.88
2019-02-09T12:18:15.285Z,12.08
2019-02-09T12:20:19.554Z,12.07
2019-02-09T12:22:24.121Z,11.92
2019-02-09T12:24:28.701Z,11.83
2019-02-09T12:26:33.851Z,11.75
2019-02-09T12:28:37.900Z,11.60
2019-02-09T12:30:41.890Z,11.44
2019-02-09T12:32:46.391Z,11.44
2019-02-09T12:34:50.675Z,11.86
2019-02-09T12:36:58.015Z,12.96
2019-02-09T12:39:02.360Z,13.67
2019-02-09T12:41:08.805Z,14.04
2019-02-09T12:43:13.451Z,14.43
2019-02-09T12:45:18.406Z,14.56
2019-02-09T12:47:23.612Z,14.11
2019-02-09T12:49:27.808Z,13.35
2019-02-09T12:51:32.115Z,13.16
2019-02-09T12:53:36.125Z,13.12
2019-02-09T13:01:52.389Z,12.29
2019-02-09T13:04:32.343Z,11.94
2019-02-09T13:06:56.565Z,11.92
2019-02-09T13:09:26.404Z,12.02
2019-02-09T13:11:54.380Z,11.91
2019-02-09T13:14:10.581Z,11.77
2019-02-09T13:16:25.796Z,11.64
2019-02-09T13:18:34.900Z,11.61
2019-02-09T13:20:55.904Z,11.58
2019-02-09T13:23:36.142Z,11.56
2019-02-09T13:37:34.354Z,11.40
2019-02-09T13:43:46.760Z,11.33
2019-02-09T14:02:18.378Z,11.56
2019-02-09T14:04:22.940Z,11.55
2019-02-09T14:06:27.031Z,11.52
2019-02-09T14:08:31.085Z,11.49
2019-02-09T14:10:35.510Z,11.46
2019-02-09T14:12:40.131Z,11.41
2019-02-09T14:14:44.981Z,11.38
2019-02-09T14:16:49.175Z,11.33
2019-02-09T14:18:53.238Z,11.31
2019-02-09T14:20:57.802Z,11.27
2019-02-09T14:23:02.116Z,11.26
2019-02-09T14:25:06.947Z,11.18
2019-02-09T14:27:10.998Z,11.14
2019-02-09T14:29:21.531Z,11.11
2019-02-09T14:31:21.141Z,11.06
2019-02-09T14:33:26.413Z,11.04
2019-02-09T14:35:30.906Z,11.00
2019-02-09T14:37:37.444Z,11.01
2019-02-09T14:39:42.385Z,11.01
2019-02-09T14:41:46.339Z,10.96
2019-02-09T14:43:50.175Z,10.95
2019-02-09T14:45:54.419Z,10.96
2019-02-09T14:47:58.844Z,10.99
2019-02-09T14:50:10.970Z,10.95
2019-02-09T14:52:09.247Z,10.91
2019-02-09T14:54:13.319Z,10.89
2019-02-09T14:56:17.767Z,10.88
2019-02-09T14:58:21.905Z,10.87
2019-02-09T15:00:41.612Z,10.83
2019-02-09T15:02:53.397Z,10.82
2019-02-09T15:04:52.226Z,10.79
2019-02-09T15:06:56.178Z,10.78
2019-02-09T15:09:00.583Z,10.76
2019-02-09T15:11:04.698Z,10.75
2019-02-09T15:13:10.104Z,10.74
2019-02-09T15:15:23.717Z,10.72
2019-02-09T15:17:29.376Z,10.67
2019-02-09T15:19:36.919Z,10.63
2019-02-09T15:21:43.240Z,10.60
2019-02-09T15:23:47.184Z,10.60
2019-02-09T15:25:52.600Z,10.59
2019-02-09T15:27:56.633Z,10.57
2019-02-09T15:30:01.384Z,10.55
2019-02-09T15:32:05.571Z,10.52
2019-02-09T15:34:10.539Z,10.46
2019-02-09T15:36:15.431Z,10.44
2019-02-09T15:38:21.238Z,10.43
2019-02-09T15:40:26.261Z,10.39
2019-02-09T15:42:30.236Z,10.37
2019-02-09T15:44:34.130Z,10.33
2019-02-09T15:46:39.105Z,10.31
2019-02-09T15:48:43.175Z,10.27
2019-02-09T15:50:48.102Z,10.25
2019-02-09T15:52:53.045Z,10.24
2019-02-09T15:54:57.809Z,10.23
2019-02-09T15:57:02.256Z,10.18
2019-02-09T15:59:06.732Z,10.16
2019-02-09T16:01:11.785Z,10.13
2019-02-09T16:03:15.876Z,10.11
2019-02-09T16:05:21.238Z,10.08
2019-02-09T16:07:25.538Z,10.07
2019-02-09T16:09:29.519Z,10.04
2019-02-09T16:11:34.930Z,10.04
2019-02-09T16:13:45.649Z,10.04
2019-02-09T16:15:45.079Z,10.05
2019-02-09T16:17:49.053Z,10.06
2019-02-09T16:19:53.315Z,10.05
2019-02-09T16:21:57.610Z,10.06
2019-02-09T16:24:01.692Z,10.06
2019-02-09T16:26:05.792Z,10.05
2019-02-09T16:28:12.909Z,10.06
2019-02-09T16:30:22.312Z,10.03
2019-02-09T16:32:26.228Z,9.99
2019-02-09T16:34:30.291Z,9.95
2019-02-09T16:36:35.379Z,9.93
2019-02-09T16:38:39.587Z,9.90
2019-02-09T16:40:44.056Z,9.89
2019-02-09T16:42:48.309Z,9.89
2019-02-09T16:44:52.198Z,9.90
2019-02-09T16:46:56.533Z,9.92
2019-02-09T16:49:02.436Z,9.91
2019-02-09T16:51:07.053Z,9.89
2019-02-09T16:53:12.005Z,9.91
2019-02-09T16:55:17.063Z,9.92
2019-02-09T16:57:22.381Z,9.91
2019-02-09T16:59:27.553Z,9.89
2019-02-09T17:01:32.694Z,9.89
2019-02-09T17:03:36.809Z,9.86
2019-02-09T17:05:41.403Z,9.87
2019-02-09T17:07:45.576Z,9.89
2019-02-09T17:09:49.593Z,9.89
2019-02-09T17:11:54.649Z,9.89
2019-02-09T17:13:58.937Z,9.89
2019-02-09T17:16:03.717Z,9.89
2019-02-09T17:18:08.411Z,9.91
2019-02-09T17:20:12.557Z,9.90
2019-02-09T17:22:17.048Z,9.91
2019-02-09T17:24:20.973Z,9.91
2019-02-09T17:26:25.488Z,9.87
2019-02-09T17:28:29.844Z,9.81
2019-02-09T17:30:35.301Z,9.74
2019-02-09T17:32:40.313Z,9.68
2019-02-09T17:34:45.122Z,9.64
2019-02-09T17:36:50.930Z,9.60
2019-02-09T17:38:55.408Z,9.54
2019-02-09T17:41:00.988Z,9.48
2019-02-09T17:43:06.217Z,9.44
2019-02-09T17:45:14.883Z,9.39
2019-02-09T17:47:19.413Z,9.35
2019-02-09T17:49:23.669Z,9.34
2019-02-09T17:51:28.770Z,9.33
2019-02-09T17:53:32.996Z,9.32
2019-02-09T17:55:37.321Z,9.30
2019-02-09T17:57:44.213Z,9.29
2019-02-09T17:59:48.123Z,9.27
2019-02-09T18:01:52.658Z,9.26
2019-02-09T18:03:56.912Z,9.25
2019-02-09T18:06:01.692Z,9.23
2019-02-09T18:08:07.259Z,9.18
2019-02-09T18:10:13.253Z,9.11
2019-02-09T18:12:17.740Z,9.05
2019-02-09T18:14:25.281Z,8.99
2019-02-09T18:16:29.939Z,8.94
2019-02-09T18:18:34.264Z,8.92
2019-02-09T18:20:38.572Z,8.91
2019-02-09T18:22:43.828Z,8.89
2019-02-09T18:24:48.368Z,8.87
2019-02-09T18:26:53.332Z,8.87
2019-02-09T18:28:58.426Z,8.87
2019-02-09T18:31:02.387Z,8.86
2019-02-09T18:33:06.586Z,8.86
2019-02-09T18:35:10.569Z,8.85
2019-02-09T18:37:15.157Z,8.86
2019-02-09T18:39:21.295Z,8.85
2019-02-09T18:41:25.542Z,8.85
2019-02-09T18:43:30.279Z,8.86
2019-02-09T18:45:34.751Z,8.88
2019-02-09T18:47:39.634Z,8.89
2019-02-09T18:49:43.808Z,8.90
2019-02-09T18:51:49.230Z,8.91
2019-02-09T18:53:54.128Z,8.92
2019-02-09T18:55:58.303Z,8.94
2019-02-09T18:58:03.174Z,8.95
2019-02-09T19:00:07.916Z,8.99
2019-02-09T19:02:12.722Z,8.98
2019-02-09T19:04:22.858Z,8.98
2019-02-09T19:06:28.484Z,8.97
2019-02-09T19:08:38.613Z,8.94
2019-02-09T19:10:44.695Z,8.88
2019-02-09T19:12:50.014Z,8.82
2019-02-09T19:15:06.073Z,8.75
2019-02-09T19:17:11.656Z,8.69
2019-02-09T19:19:18.991Z,8.59
2019-02-09T19:21:23.689Z,8.55
2019-02-09T19:23:29.305Z,8.52
2019-02-09T19:25:33.761Z,8.48
2019-02-09T19:27:38.535Z,8.45
2019-02-09T19:29:43.776Z,8.44
2019-02-09T19:31:48.254Z,8.43
2019-02-09T19:33:52.807Z,8.43
2019-02-09T19:35:58.720Z,8.41
2019-02-09T19:38:03.892Z,8.39
2019-02-09T19:40:09.049Z,8.39
2019-02-09T19:42:14.245Z,8.38
2019-02-09T19:44:20.824Z,8.39
2019-02-09T19:46:26.872Z,8.37
2019-02-09T19:48:32.034Z,8.37
2019-02-09T19:50:36.603Z,8.36
2019-02-09T19:52:41.990Z,8.36
2019-02-09T19:54:46.384Z,8.33
2019-02-09T19:56:50.931Z,8.28
2019-02-09T19:58:56.630Z,8.22
2019-02-09T20:01:00.747Z,8.20
2019-02-09T20:03:06.832Z,8.19
2019-02-09T20:05:10.975Z,8.21
2019-02-09T20:07:15.491Z,8.25
2019-02-09T20:09:19.788Z,8.28
2019-02-09T20:11:27.107Z,8.34
2019-02-09T20:13:32.145Z,8.36
2019-02-09T20:15:36.527Z,8.40
2019-02-09T20:17:40.925Z,8.43
2019-02-09T20:19:45.109Z,8.47
2019-02-09T20:21:49.125Z,8.49
2019-02-09T20:23:53.464Z,8.51
2019-02-09T20:26:00.238Z,8.53
2019-02-09T20:28:04.925Z,8.55
2019-02-09T20:30:23.164Z,8.55
2019-02-09T20:32:28.674Z,8.54
2019-02-09T20:34:33.189Z,8.52
2019-02-09T20:36:38.314Z,8.51
2019-02-09T20:38:42.821Z,8.49
2019-02-09T20:40:51.948Z,8.48
2019-02-09T20:43:01.850Z,8.44
2019-02-09T20:45:02.421Z,8.40
2019-02-09T20:47:07.242Z,8.38
2019-02-09T20:49:11.906Z,8.35
2019-02-09T20:51:17.445Z,8.35
2019-02-09T20:53:23.791Z,8.33
2019-02-09T20:55:28.377Z,8.33
2019-02-09T20:57:33.058Z,8.32
2019-02-09T20:59:37.383Z,8.29
2019-02-09T21:01:41.732Z,8.28
2019-02-09T21:03:46.877Z,8.27
2019-02-09T21:05:51.655Z,8.25
2019-02-09T21:07:56.298Z,8.22
2019-02-09T21:10:10.905Z,8.22
2019-02-09T21:12:15.731Z,8.20
2019-02-09T21:14:19.815Z,8.19
2019-02-09T21:16:24.049Z,8.18
2019-02-09T21:18:28.605Z,8.19
2019-02-09T21:20:33.263Z,8.19
2019-02-09T21:22:39.330Z,8.20
2019-02-09T21:24:43.512Z,8.21
2019-02-09T21:26:47.565Z,8.22
2019-02-09T21:28:53.679Z,8.22
2019-02-09T21:30:58.542Z,8.25
2019-02-09T21:33:03.741Z,8.29
2019-02-09T21:35:08.998Z,8.31
2019-02-09T21:37:14.410Z,8.33
2019-02-09T21:39:18.709Z,8.29
2019-02-09T21:41:22.907Z,8.29
2019-02-09T21:43:27.542Z,8.30
2019-02-09T21:45:31.804Z,8.27
2019-02-09T21:47:36.514Z,8.22
2019-02-09T21:50:41.491Z,8.15
2019-02-09T21:53:43.429Z,8.07
2019-02-09T21:56:22.886Z,7.93
2019-02-09T21:58:34.098Z,7.79
2019-02-09T22:00:43.851Z,7.78
2019-02-09T22:02:53.311Z,7.76
2019-02-09T22:04:57.639Z,7.72
2019-02-09T22:07:14.593Z,7.66
2019-02-09T22:09:50.282Z,7.57
2019-02-09T22:14:33.071Z,7.38
2019-02-09T22:17:12.561Z,7.31
2019-02-09T22:19:17.344Z,7.27
2019-02-09T22:21:24.520Z,7.25
2019-02-09T22:23:36.725Z,7.25
2019-02-09T22:25:41.428Z,7.26
2019-02-09T22:27:48.507Z,7.27
2019-02-09T22:30:03.580Z,7.27
2019-02-09T22:32:08.952Z,7.27
2019-02-09T22:35:05.503Z,7.24
2019-02-09T22:37:11.473Z,7.23
2019-02-09T22:39:16.528Z,7.20
2019-02-09T22:41:20.764Z,7.17
2019-02-09T22:43:25.434Z,7.14
2019-02-09T22:46:15.245Z,7.08
2019-02-09T22:48:21.027Z,7.04
2019-02-09T22:50:33.909Z,6.99
2019-02-09T22:52:50.746Z,6.97
2019-02-09T22:54:49.150Z,6.94
2019-02-09T22:57:09.072Z,6.87
2019-02-09T22:59:16.407Z,6.82
2019-02-09T23:01:46.965Z,6.76
2019-02-09T23:04:26.107Z,6.72
2019-02-09T23:08:18.289Z,6.66
2019-02-09T23:10:05.694Z,6.62
2019-02-09T23:12:10.093Z,6.57
2019-02-09T23:14:15.435Z,6.55
2019-02-09T23:16:20.899Z,6.51
2019-02-09T23:18:26.304Z,6.50
2019-02-09T23:20:30.558Z,6.48
2019-02-09T23:22:38.236Z,6.46
2019-02-09T23:24:42.406Z,6.44
2019-02-09T23:26:46.701Z,6.42
2019-02-09T23:28:52.044Z,6.41
2019-02-09T23:30:57.284Z,6.37
2019-02-09T23:33:02.669Z,6.35
2019-02-09T23:35:06.987Z,6.32
2019-02-09T23:37:11.354Z,6.29
2019-02-09T23:39:16.944Z,6.27
2019-02-09T23:41:22.254Z,6.25
2019-02-09T23:43:27.338Z,6.27
2019-02-09T23:45:31.531Z,6.28
2019-02-09T23:47:35.720Z,6.29
2019-02-09T23:49:40.371Z,6.29
2019-02-09T23:51:47.348Z,6.28
2019-02-09T23:53:52.570Z,6.25
2019-02-09T23:55:56.785Z,6.26
2019-02-09T23:58:01.032Z,6.26
